createdAt,value
2023-05-07T00:02:17.643Z,4.90
2023-05-07T00:04:45.181Z,4.68
2023-05-07T00:07:12.078Z,4.97
2023-05-07T00:09:38.808Z,5.70
2023-05-07T00:12:05.761Z,5.30
2023-05-07T00:14:32.727Z,5.38
2023-05-07T00:16:59.690Z,5.20
2023-05-07T00:19:26.635Z,5.72
2023-05-07T00:21:54.983Z,5.40
2023-05-07T00:24:21.964Z,5.22
2023-05-07T00:26:48.759Z,5.88
2023-05-07T00:29:15.574Z,5.40
2023-05-07T00:31:42.598Z,6.00
2023-05-07T00:34:09.507Z,5.70
2023-05-07T00:36:36.744Z,6.00
2023-05-07T00:39:04.719Z,5.53
2023-05-07T00:41:32.014Z,5.18
2023-05-07T00:43:58.872Z,5.60
2023-05-07T00:46:25.974Z,5.55
2023-05-07T00:48:53.233Z,6.45
2023-05-07T00:51:20.100Z,6.47
2023-05-07T00:53:47.609Z,5.80
2023-05-07T00:56:14.580Z,5.93
2023-05-07T00:58:41.828Z,6.53
2023-05-07T01:01:08.707Z,5.95
2023-05-07T01:03:36.296Z,5.00
2023-05-07T01:06:04.469Z,5.43
2023-05-07T01:08:33.268Z,5.43
2023-05-07T01:11:01.323Z,6.13
2023-05-07T01:13:29.328Z,6.50
2023-05-07T01:15:56.123Z,6.30
2023-05-07T01:18:23.217Z,5.93
2023-05-07T01:20:50.255Z,6.32
2023-05-07T01:23:17.202Z,5.85
2023-05-07T01:25:44.029Z,5.78
2023-05-07T01:28:10.866Z,5.90
2023-05-07T01:30:47.757Z,5.57
2023-05-07T01:33:16.637Z,5.63
2023-05-07T01:35:47.762Z,5.47
2023-05-07T01:38:14.837Z,6.07
2023-05-07T01:40:42.248Z,5.78
2023-05-07T01:43:10.559Z,5.60
2023-05-07T01:45:37.707Z,5.53
2023-05-07T01:48:04.847Z,5.25
2023-05-07T01:50:33.237Z,5.05
2023-05-07T01:53:00.317Z,4.30
2023-05-07T01:55:27.231Z,5.43
2023-05-07T01:57:53.991Z,4.68
2023-05-07T02:00:21.151Z,5.40
2023-05-07T02:02:48.025Z,5.85
2023-05-07T02:05:15.119Z,5.10
2023-05-07T02:07:41.866Z,6.30
2023-05-07T02:10:09.180Z,5.95
2023-05-07T02:12:36.279Z,5.82
2023-05-07T02:15:03.545Z,6.03
2023-05-07T02:17:32.831Z,6.60
2023-05-07T02:20:00.747Z,5.78
2023-05-07T02:22:27.537Z,5.32
2023-05-07T02:24:54.312Z,5.55
2023-05-07T02:27:21.200Z,5.90
2023-05-07T02:29:48.185Z,5.88
2023-05-07T02:32:15.009Z,5.70
2023-05-07T02:34:42.284Z,6.25
2023-05-07T02:37:09.169Z,6.07
2023-05-07T02:39:37.773Z,6.57
2023-05-07T02:42:04.643Z,6.10
2023-05-07T02:44:32.512Z,5.95
2023-05-07T02:46:59.289Z,5.20
2023-05-07T02:49:26.080Z,5.95
2023-05-07T02:51:52.848Z,5.03
2023-05-07T02:54:19.749Z,5.78
2023-05-07T02:56:46.495Z,6.20
2023-05-07T02:59:13.262Z,6.10
2023-05-07T03:01:40.194Z,6.03
2023-05-07T03:04:07.174Z,5.95
2023-05-07T03:06:33.958Z,6.03
2023-05-07T03:09:00.848Z,5.78
2023-05-07T03:11:27.648Z,5.65
2023-05-07T03:13:54.527Z,5.38
2023-05-07T03:16:21.866Z,6.50
2023-05-07T03:18:48.708Z,5.38
2023-05-07T03:21:15.751Z,5.72
2023-05-07T03:23:42.602Z,6.45
2023-05-07T03:26:09.375Z,5.80
2023-05-07T03:28:36.231Z,6.70
2023-05-07T03:31:03.427Z,6.97
2023-05-07T03:33:30.221Z,6.57
2023-05-07T03:35:56.974Z,6.40
2023-05-07T03:38:23.724Z,6.35
2023-05-07T03:40:50.608Z,6.95
2023-05-07T03:43:17.534Z,7.00
2023-05-07T03:45:44.259Z,7.32
2023-05-07T03:48:11.094Z,6.80
2023-05-07T03:50:39.125Z,5.93
2023-05-07T03:53:05.973Z,5.82
2023-05-07T03:55:32.969Z,6.00
2023-05-07T03:57:59.704Z,5.97
2023-05-07T04:00:28.934Z,6.32
2023-05-07T04:02:55.765Z,5.90
2023-05-07T04:05:22.592Z,6.47
2023-05-07T04:07:49.402Z,6.28
2023-05-07T04:10:16.292Z,6.53
2023-05-07T04:12:43.103Z,6.10
2023-05-07T04:15:10.325Z,6.40
2023-05-07T04:17:37.157Z,5.70
2023-05-07T04:20:04.662Z,6.82
2023-05-07T06:33:29.841Z,9.25
2023-05-07T06:36:05.794Z,9.75
2023-05-07T06:38:32.544Z,10.13
2023-05-07T06:40:59.474Z,9.50
2023-05-07T06:43:26.290Z,8.77
2023-05-07T06:45:53.094Z,9.27
2023-05-07T06:48:19.860Z,9.32
2023-05-07T06:50:46.714Z,9.20
2023-05-07T06:53:13.617Z,9.43
2023-05-07T06:55:40.359Z,8.40
2023-05-07T06:58:07.249Z,8.32
2023-05-07T07:00:34.284Z,8.10
2023-05-07T07:03:01.618Z,8.60
2023-05-07T07:05:28.546Z,8.20
2023-05-07T07:07:55.282Z,7.65
2023-05-07T07:10:22.747Z,7.85
2023-05-07T07:12:50.769Z,7.85
2023-05-07T07:15:17.795Z,7.25
2023-05-07T07:17:44.588Z,7.82
2023-05-07T07:20:12.167Z,7.82
2023-05-07T07:22:39.231Z,8.48
2023-05-07T07:25:06.357Z,8.23
2023-05-07T07:27:33.214Z,7.95
2023-05-07T07:30:00.036Z,8.23
2023-05-07T07:32:27.315Z,7.07
2023-05-07T07:34:54.183Z,7.00
2023-05-07T07:37:21.228Z,6.60
2023-05-07T07:39:47.984Z,7.25
2023-05-07T07:42:14.873Z,5.90
2023-05-07T07:44:41.734Z,5.47
2023-05-07T07:47:08.672Z,4.55
2023-05-07T07:49:36.471Z,4.88
2023-05-07T07:52:03.402Z,5.07
2023-05-07T07:54:47.474Z,4.72
2023-05-07T08:01:24.449Z,3.90
2023-05-07T08:03:57.304Z,4.38
2023-05-07T08:07:00.997Z,4.60
2023-05-07T08:09:51.939Z,4.18
2023-05-07T08:12:40.968Z,4.25
2023-05-07T08:17:53.712Z,4.13
2023-05-07T08:23:27.331Z,4.57
2023-05-07T08:48:17.521Z,4.68
2023-05-07T09:10:26.001Z,3.78
2023-05-07T09:13:19.350Z,3.38
2023-05-07T09:35:57.126Z,3.08
2023-05-07T09:39:26.469Z,1.58
2023-05-07T09:41:55.561Z,1.70
2023-05-07T09:44:23.007Z,1.77
2023-05-07T09:46:56.546Z,2.10
2023-05-07T09:49:26.271Z,2.03
2023-05-07T09:51:54.305Z,1.92
2023-05-07T09:54:21.351Z,1.65
2023-05-07T09:56:50.125Z,1.70
2023-05-07T09:59:18.100Z,1.63
2023-05-07T10:01:46.244Z,1.10
2023-05-07T10:04:15.198Z,1.35
2023-05-07T10:06:43.638Z,1.15
2023-05-07T10:09:12.142Z,2.38
2023-05-07T10:11:39.205Z,2.22
2023-05-07T10:14:09.165Z,2.42
2023-05-07T10:16:45.057Z,1.90
2023-05-07T10:19:12.150Z,1.50
2023-05-07T10:21:49.842Z,1.20
2023-05-07T10:24:37.964Z,1.52
2023-05-07T10:27:16.607Z,1.33
2023-05-07T10:30:01.281Z,1.10
2023-05-07T10:32:46.771Z,1.00
2023-05-07T10:35:20.176Z,1.40
2023-05-07T10:37:47.920Z,1.20
2023-05-07T10:40:15.149Z,1.02
2023-05-07T10:42:59.058Z,0.80
2023-05-07T10:45:26.386Z,1.10
2023-05-07T10:48:27.287Z,1.10
2023-05-07T10:51:22.737Z,1.13
2023-05-07T10:53:49.741Z,0.90
2023-05-07T10:56:22.425Z,0.90
2023-05-07T10:58:49.397Z,0.90
2023-05-07T11:01:36.317Z,0.70
2023-05-07T11:04:25.474Z,0.50
2023-05-07T11:07:07.969Z,1.08
2023-05-07T11:10:02.116Z,0.77
2023-05-07T11:12:41.907Z,1.05
2023-05-07T11:15:14.386Z,0.85
2023-05-07T11:17:59.118Z,0.80
2023-05-07T11:20:44.671Z,0.57
2023-05-07T11:23:33.345Z,0.60
2023-05-07T11:26:10.922Z,0.80
2023-05-07T11:28:44.763Z,0.68
2023-05-07T11:31:13.317Z,0.57
2023-05-07T11:33:41.005Z,0.55
2023-05-07T11:36:09.520Z,0.60
2023-05-07T11:41:38.269Z,0.60
2023-05-07T11:44:05.270Z,0.70
2023-05-07T11:46:33.197Z,0.70
2023-05-07T11:49:01.896Z,0.80
2023-05-07T11:51:28.797Z,0.65
2023-05-07T11:53:55.602Z,0.80
2023-05-07T11:56:22.462Z,1.08
2023-05-07T11:58:49.545Z,0.73
2023-05-07T12:01:17.490Z,0.80
2023-05-07T12:03:47.364Z,0.73
2023-05-07T12:06:16.599Z,0.60
2023-05-07T12:08:47.079Z,0.60
2023-05-07T12:13:44.452Z,0.70
2023-05-07T12:16:11.975Z,1.02
2023-05-07T12:18:39.404Z,0.68
2023-05-07T12:21:07.747Z,0.90
2023-05-07T12:23:39.251Z,1.10
2023-05-07T12:26:07.432Z,1.13
2023-05-07T12:28:41.892Z,0.82
2023-05-07T12:31:09.038Z,1.02
2023-05-07T12:33:37.054Z,1.13
2023-05-07T12:36:07.746Z,0.80
2023-05-07T12:38:37.927Z,0.80
2023-05-07T12:43:35.739Z,0.70
2023-05-07T12:46:05.672Z,0.85
2023-05-07T12:51:03.592Z,0.80
2023-05-07T12:53:32.270Z,0.68
2023-05-07T12:56:00.852Z,0.88
2023-05-07T12:58:28.271Z,0.90
2023-05-07T13:01:00.438Z,0.90
2023-05-07T13:03:35.603Z,0.95
2023-05-07T13:06:11.152Z,0.55
2023-05-07T13:08:44.456Z,0.75
2023-05-07T13:11:12.608Z,0.90
2023-05-07T13:13:41.527Z,0.90
2023-05-07T13:16:10.570Z,0.80
2023-05-07T13:18:39.034Z,0.88
2023-05-07T13:21:06.129Z,1.00
2023-05-07T13:23:32.899Z,0.88
2023-05-07T13:26:01.119Z,0.50
2023-05-07T13:30:58.196Z,1.33
2023-05-07T13:33:27.035Z,1.05
2023-05-07T13:35:53.964Z,0.60
2023-05-07T13:38:21.629Z,1.20
2023-05-07T13:40:49.889Z,0.90
2023-05-07T13:43:18.532Z,0.80
2023-05-07T13:45:45.552Z,0.70
2023-05-07T13:48:12.419Z,0.77
2023-05-07T13:50:39.152Z,1.00
2023-05-07T13:53:06.034Z,0.77
2023-05-07T13:55:33.353Z,0.88
2023-05-07T13:58:01.736Z,1.20
2023-05-07T14:00:29.777Z,0.90
2023-05-07T14:02:57.505Z,0.85
2023-05-07T14:05:24.465Z,1.13
2023-05-07T14:07:52.964Z,1.45
2023-05-07T14:10:26.055Z,0.98
2023-05-07T14:12:56.159Z,1.33
2023-05-07T14:15:22.984Z,1.95
2023-05-07T14:17:49.935Z,1.80
2023-05-07T14:20:16.802Z,1.30
2023-05-07T14:22:43.621Z,1.35
2023-05-07T14:25:11.389Z,1.60
2023-05-07T14:30:28.230Z,2.13
2023-05-07T14:32:55.247Z,1.75
2023-05-07T14:35:22.065Z,1.98
2023-05-07T14:38:23.318Z,1.80
2023-05-07T14:41:09.258Z,2.67
2023-05-07T14:43:36.715Z,2.10
2023-05-07T14:46:29.186Z,2.17
2023-05-07T14:48:56.096Z,1.65
2023-05-07T14:51:23.101Z,1.73
2023-05-07T14:53:51.246Z,2.25
2023-05-07T14:56:18.464Z,1.70
2023-05-07T14:58:47.629Z,1.95
2023-05-07T15:01:14.857Z,1.80
2023-05-07T15:03:50.762Z,1.67
2023-05-07T15:16:21.595Z,1.90
2023-05-07T15:18:48.461Z,1.55
2023-05-07T15:25:04.175Z,1.90
2023-05-07T15:27:31.770Z,2.05
2023-05-07T15:29:59.023Z,1.52
2023-05-07T15:32:26.248Z,2.58
2023-05-07T15:34:53.021Z,1.90
2023-05-07T15:37:19.796Z,1.70
2023-05-07T15:39:47.050Z,1.65
2023-05-07T15:42:15.806Z,1.85
2023-05-07T15:44:43.101Z,1.83
2023-05-07T15:47:09.936Z,1.35
2023-05-07T15:49:36.687Z,1.77
2023-05-07T15:52:03.946Z,1.67
2023-05-07T15:54:31.112Z,1.75
2023-05-07T15:56:58.010Z,1.65
2023-05-07T15:59:25.143Z,1.80
2023-05-07T16:01:52.650Z,1.33
2023-05-07T16:04:19.594Z,1.70
2023-05-07T16:06:47.593Z,1.50
2023-05-07T16:09:15.050Z,1.50
2023-05-07T16:11:41.912Z,1.73
2023-05-07T16:14:08.754Z,1.63
2023-05-07T16:16:38.167Z,1.30
2023-05-07T16:19:05.764Z,1.20
2023-05-07T16:21:33.204Z,1.85
2023-05-07T16:24:00.045Z,1.85
2023-05-07T16:26:26.855Z,1.27
2023-05-07T16:28:53.740Z,1.48
2023-05-07T16:31:20.600Z,1.35
2023-05-07T16:33:47.404Z,2.00
2023-05-07T16:36:14.586Z,1.58
2023-05-07T16:38:41.401Z,1.50
2023-05-07T16:41:08.250Z,1.48
2023-05-07T16:43:35.014Z,1.55
2023-05-07T16:46:01.920Z,1.48
2023-05-07T16:48:28.723Z,1.27
2023-05-07T16:50:56.007Z,1.70
2023-05-07T16:53:22.756Z,1.45
2023-05-07T16:55:49.509Z,1.98
2023-05-07T16:58:16.427Z,2.03
2023-05-07T17:00:50.450Z,1.70
2023-05-07T17:03:18.484Z,2.55
2023-05-07T17:05:45.647Z,1.60
2023-05-07T17:08:14.186Z,1.50
2023-05-07T17:10:41.821Z,1.83
2023-05-07T17:13:08.677Z,1.73
2023-05-07T17:15:35.540Z,1.98
2023-05-07T17:18:02.382Z,1.58
2023-05-07T17:20:29.382Z,1.73
2023-05-07T17:22:56.138Z,1.75
2023-05-07T17:25:23.640Z,1.42
2023-05-07T17:27:50.667Z,1.92
2023-05-07T17:30:18.034Z,1.77
2023-05-07T17:32:44.902Z,1.38
2023-05-07T17:35:11.797Z,1.70
2023-05-07T17:37:38.769Z,1.27
2023-05-07T17:40:09.205Z,1.50
2023-05-07T17:42:36.015Z,1.63
2023-05-07T17:45:02.838Z,1.13
2023-05-07T17:47:29.627Z,1.40
2023-05-07T17:49:56.364Z,1.17
2023-05-07T17:52:24.150Z,1.20
2023-05-07T17:54:51.035Z,1.30
2023-05-07T17:57:17.814Z,1.52
2023-05-07T17:59:44.585Z,1.20
2023-05-07T18:02:11.448Z,1.20
2023-05-07T18:04:38.245Z,1.10
2023-05-07T18:07:04.987Z,1.10
2023-05-07T18:09:31.775Z,1.23
2023-05-07T18:11:58.641Z,1.25
2023-05-07T18:14:26.283Z,1.60
2023-05-07T18:16:54.205Z,1.90
2023-05-07T18:19:23.850Z,2.00
2023-05-07T18:21:50.646Z,1.40
2023-05-07T18:24:17.463Z,1.45
2023-05-07T18:26:44.259Z,1.58
2023-05-07T18:29:11.125Z,1.45
2023-05-07T18:31:38.288Z,1.77
2023-05-07T18:34:06.331Z,1.63
2023-05-07T18:37:06.591Z,1.38
2023-05-07T18:39:35.005Z,1.52
2023-05-07T18:42:01.789Z,1.80
2023-05-07T18:44:28.576Z,1.80
2023-05-07T18:49:25.977Z,1.83
2023-05-07T18:51:53.291Z,2.10
2023-05-07T18:54:20.125Z,1.48
2023-05-07T18:56:46.905Z,1.30
2023-05-07T18:59:13.750Z,2.10
2023-05-07T19:01:40.608Z,1.73
2023-05-07T19:04:07.480Z,2.20
2023-05-07T19:06:34.293Z,1.98
2023-05-07T19:09:01.264Z,2.00
2023-05-07T19:11:28.034Z,2.15
2023-05-07T19:13:54.824Z,2.13
2023-05-07T19:16:21.661Z,2.45
2023-05-07T19:18:48.688Z,1.65
2023-05-07T19:21:15.585Z,2.17
2023-05-07T19:23:42.362Z,1.88
2023-05-07T19:26:10.411Z,2.17
2023-05-07T19:28:45.500Z,1.80
2023-05-07T19:31:21.299Z,2.42
2023-05-07T19:33:48.670Z,1.77
2023-05-07T19:36:17.322Z,1.77
2023-05-07T19:38:45.184Z,2.15
2023-05-07T19:41:12.488Z,2.30
2023-05-07T19:43:40.106Z,1.92
2023-05-07T19:46:06.956Z,2.40
2023-05-07T19:48:33.773Z,2.10
2023-05-07T19:51:00.717Z,2.08
2023-05-07T19:53:27.708Z,2.03
2023-05-07T19:56:08.712Z,2.10
2023-05-07T19:58:36.436Z,2.40
2023-05-07T20:01:04.501Z,2.50
2023-05-07T20:03:32.796Z,2.00
2023-05-07T20:06:00.270Z,1.88
2023-05-07T20:08:27.757Z,2.30
2023-05-07T20:10:54.638Z,2.35
2023-05-07T20:13:21.434Z,1.88
2023-05-07T20:15:48.279Z,2.00
2023-05-07T20:18:15.999Z,2.17
2023-05-07T20:20:44.586Z,1.90
2023-05-07T20:23:11.469Z,1.95
2023-05-07T20:25:39.916Z,1.73
2023-05-07T20:28:06.694Z,2.13
2023-05-07T20:30:33.483Z,2.05
2023-05-07T20:33:00.342Z,2.00
2023-05-07T20:35:27.153Z,2.08
2023-05-07T20:37:53.935Z,2.00
2023-05-07T20:40:20.916Z,2.22
2023-05-07T20:42:47.772Z,2.20
2023-05-07T20:45:14.579Z,1.60
2023-05-07T20:47:42.104Z,1.77
2023-05-07T20:50:09.296Z,1.90
2023-05-07T20:52:36.417Z,2.20
2023-05-07T20:55:03.457Z,2.17
2023-05-07T20:57:30.352Z,1.88
2023-05-07T20:59:57.396Z,2.33
2023-05-07T21:02:24.178Z,1.80
2023-05-07T21:04:53.933Z,1.90
2023-05-07T21:07:20.732Z,2.20
2023-05-07T21:09:47.481Z,1.77
2023-05-07T21:12:14.255Z,2.10
2023-05-07T21:14:41.058Z,2.00
2023-05-07T21:17:08.208Z,2.15
2023-05-07T21:19:35.201Z,1.52
2023-05-07T21:22:01.977Z,1.48
2023-05-07T21:24:28.762Z,2.10
2023-05-07T21:26:56.168Z,1.20
2023-05-07T21:29:23.639Z,1.48
2023-05-07T21:31:50.497Z,1.40
2023-05-07T21:34:17.346Z,1.67
2023-05-07T21:36:44.357Z,1.42
2023-05-07T21:39:11.184Z,1.27
2023-05-07T21:41:38.049Z,1.73
2023-05-07T21:44:05.556Z,1.70
2023-05-07T21:46:33.193Z,2.00
2023-05-07T21:49:00.052Z,1.83
2023-05-07T21:51:26.822Z,1.90
2023-05-07T21:53:53.594Z,2.13
2023-05-07T21:56:20.430Z,2.00
2023-05-07T21:58:48.535Z,1.30
2023-05-07T22:01:15.356Z,1.88
2023-05-07T22:03:42.257Z,1.77
2023-05-07T22:06:09.155Z,1.70
2023-05-07T22:08:35.858Z,1.65
2023-05-07T22:11:02.599Z,1.38
2023-05-07T22:13:29.510Z,1.90
2023-05-07T22:15:58.477Z,1.52
2023-05-07T22:18:26.642Z,1.67
2023-05-07T22:23:36.462Z,1.60
2023-05-07T22:26:11.519Z,1.52
2023-05-07T22:28:38.701Z,1.73
2023-05-07T22:31:05.927Z,1.48
2023-05-07T22:39:57.324Z,1.88
2023-05-07T22:45:24.106Z,2.08
2023-05-07T22:47:54.445Z,2.15
2023-05-07T22:50:21.856Z,2.13
2023-05-07T22:52:50.092Z,2.67
2023-05-07T22:55:18.768Z,3.28
2023-05-07T22:57:47.503Z,2.83
2023-05-07T23:00:15.330Z,2.80
2023-05-07T23:02:46.823Z,3.10
2023-05-07T23:05:15.795Z,3.10
2023-05-07T23:07:43.869Z,2.85
2023-05-07T23:10:11.306Z,3.67
2023-05-07T23:12:38.432Z,3.58
2023-05-07T23:15:06.585Z,3.35
2023-05-07T23:17:35.559Z,3.63
2023-05-07T23:20:03.113Z,4.20
2023-05-07T23:22:32.632Z,2.97
2023-05-07T23:25:00.664Z,2.78
2023-05-07T23:27:29.742Z,3.15
2023-05-07T23:29:57.418Z,3.67
2023-05-07T23:32:25.507Z,3.45
2023-05-07T23:34:56.923Z,3.50
2023-05-07T23:37:26.596Z,2.83
2023-05-07T23:39:59.382Z,3.20
2023-05-07T23:42:28.679Z,2.75
2023-05-07T23:45:03.865Z,2.83
2023-05-07T23:47:46.329Z,3.22
2023-05-07T23:50:13.724Z,3.05
2023-05-07T23:52:40.740Z,2.90
2023-05-07T23:55:08.487Z,3.47
2023-05-07T23:57:35.255Z,2.78
